• Join FlightAware (Why Join?)
  • Login
  • US Flag 
02:44PM EST


 

Airport Tracker/Info


-or-


 

Live Flight TrackerFlight Track Log ✈ N559LC ✈ 26-Jul-2013 ✈ KDTW - CYLW

Flight Track Log - Related Links

Times and Time Zones

All times are in EDT time to prevent confusion due to time zone crossing. See the N559LC flight status page for this flight to view local times or setup timezone preferences in your user account.

Time Position Orientation Groundspeed Altitude Reporting Facility
EDT Latitude Longitude Course Direction KTS MPH feet Rate Location/Type
03:26PM 42.3118 -83.3500 North  Level FlightAware Approximate
03:27PM 42.4236 -83.3500 North  Level FlightAware Approximate
03:28PM 42.5354 -83.3500 North  Level FlightAware Approximate
03:29PM 42.6472 -83.3500 North  Level FlightAware Approximate
03:30PM 42.7590 -83.3500 North  Level FlightAware Approximate
03:31PM 42.8703 -83.3568 346° North  Level FlightAware Approximate
03:32PM 42.9812 -83.3667 North  Level FlightAware Approximate
03:33PM 43.0908 -83.3811 336° Northwest  Level FlightAware Approximate
03:34PM 43.1924 -83.4449 334° Northwest  Level FlightAware Approximate
03:35PM 43.2949 -83.5058 340° North  Level FlightAware Approximate
03:36PM 43.3957 -83.5719 333° Northwest  Level FlightAware Approximate
03:37PM 43.4898 -83.6496 299° West  Level FlightAware Approximate
03:38PM 43.5317 -83.7914 285° West  Level FlightAware Approximate
03:39PM 43.5657 -83.9381 292° West  Level FlightAware Approximate
03:40PM 43.6067 -84.0817 292° West  Level FlightAware Approximate
03:41PM 43.6415 -84.2284 287° West  Level FlightAware Approximate
03:42PM 43.6753 -84.3758 288° West  Level FlightAware Approximate
03:43PM 43.7170 -84.5179 289° West  Level FlightAware Approximate
03:44PM 43.7537 -84.6640 289° West  Level FlightAware Approximate
03:45PM 43.7902 -84.8103 289° West  Level FlightAware Approximate
03:46PM 43.8261 -84.9571 288° West  Level FlightAware Approximate
03:47PM 43.8604 -85.1047 288° West  Level FlightAware Approximate
03:48PM 43.8944 -85.2524 288° West  Level FlightAware Approximate
03:49PM 43.9283 -85.4003 288° West  Level FlightAware Approximate
03:50PM 43.9620 -85.5484 288° West  Level FlightAware Approximate
03:51PM 43.9955 -85.6966 287° West  Level FlightAware Approximate
03:52PM 44.0293 -85.8448 288° West  Level FlightAware Approximate
03:53PM 44.0630 -85.9931 288° West  Level FlightAware Approximate
03:54PM 44.0965 -86.1416 287° West  Level FlightAware Approximate
03:55PM 44.1298 -86.2903 287° West  Level FlightAware Approximate
03:56PM 44.1629 -86.4391 287° West  Level FlightAware Approximate
03:57PM 44.1958 -86.5881 287° West  Level FlightAware Approximate
03:58PM 44.2286 -86.7372 287° West  Level FlightAware Approximate
03:59PM 44.2611 -86.8866 287° West  Level FlightAware Approximate
04:00PM 44.2934 -87.0360 287° West  Level FlightAware Approximate
04:01PM 44.3256 -87.1857 287° West  Level FlightAware Approximate
04:02PM 44.3581 -87.3353 288° West  Level FlightAware Approximate
04:03PM 44.3924 -87.4842 288° West  Level FlightAware Approximate
04:04PM 44.4264 -87.6332 288° West  Level FlightAware Approximate
04:05PM 44.4603 -87.7825 288° West  Level FlightAware Approximate
04:06PM 44.4939 -87.9319 288° West  Level FlightAware Approximate
04:07PM 44.5274 -88.0815 287° West  Level FlightAware Approximate
04:08PM 44.5639 -88.2296 293° West  Level FlightAware Approximate
04:09PM 44.6072 -88.3744 293° West  Level FlightAware Approximate
04:10PM 44.6503 -88.5193 293° West  Level FlightAware Approximate
04:11PM 44.6933 -88.6645 293° West  Level FlightAware Approximate
04:12PM 44.7361 -88.8099 293° West  Level FlightAware Approximate
04:13PM 44.7786 -88.9555 292° West  Level FlightAware Approximate
04:14PM 44.8210 -89.1013 292° West  Level FlightAware Approximate
04:15PM 44.8632 -89.2473 292° West  Level FlightAware Approximate
04:16PM 44.9053 -89.3935 292° West  Level FlightAware Approximate
04:17PM 44.9471 -89.5400 292° West  Level FlightAware Approximate
04:18PM 44.9887 -89.6866 292° West  Level FlightAware Approximate
04:19PM 45.0302 -89.8335 292° West  Level FlightAware Approximate
04:20PM 45.0715 -89.9806 292° West  Level FlightAware Approximate
04:21PM 45.1125 -90.1279 292° West  Level FlightAware Approximate
04:22PM 45.1534 -90.2754 292° West  Level FlightAware Approximate
04:23PM 45.1941 -90.4231 291° West  Level FlightAware Approximate
04:24PM 45.2346 -90.5710 291° West  Level FlightAware Approximate
04:25PM 45.2750 -90.7192 291° West  Level FlightAware Approximate
04:26PM 45.3158 -90.8672 292° West  Level FlightAware Approximate
04:27PM 45.3566 -91.0153 291° West  Level FlightAware Approximate
04:28PM 45.3972 -91.1636 291° West  Level FlightAware Approximate
04:29PM 45.4376 -91.3121 291° West  Level FlightAware Approximate
04:29PM 42.2100 -83.3531 291° West 168 193 1,300  Level Cleveland Center
04:30PM 45.4778 -91.4608 291° West  Level FlightAware Approximate
04:30PM 42.1883 -83.3828 225° Southwest 205 236 2,800  Level Cleveland Center
04:31PM 45.5178 -91.6098 291° West  Level FlightAware Approximate
04:31PM 42.1508 -83.4708 240° Southwest 262 302 5,900  Level Cleveland Center
04:32PM 45.5576 -91.7589 291° West  Level FlightAware Approximate
04:32PM 42.1825 -83.5422 301° West 283 326 8,700  Level Cleveland Center
04:32PM 42.2069 -83.5631 328° Northwest 289 333 9,600 1,020 Climbing Cleveland Center
04:33PM 45.5973 -91.9083 291° West  Level FlightAware Approximate
04:33PM 42.2969 -83.6236 334° Northwest 314 361 10,300  Level Cleveland Center
04:34PM 45.6367 -92.0579 291° West  Level FlightAware Approximate
04:34PM 42.3883 -83.6336 355° North 329 379 11,200  Level Cleveland Center
04:35PM 42.4978 -83.6022 12° North 364 419 13,200 2,160 Climbing Cleveland Center
04:36PM 42.6014 -83.5478 21° North 370 426 15,600 2,160 Climbing Cleveland Center
04:37PM 42.7069 -83.5697 351° North 376 433 17,600 1,980 Climbing Cleveland Center
04:38PM 42.8006 -83.6564 326° Northwest 371 427 19,600 2,100 Climbing Cleveland Center
04:39PM 42.8900 -83.7431 325° Northwest 376 433 21,800 2,100 Climbing Cleveland Center
04:40PM 42.9856 -83.8300 326° Northwest 403 464 23,800 1,920 Climbing Cleveland Center
04:41PM 43.0831 -83.9206 326° Northwest 416 479 25,700 1,740 Climbing Cleveland Center
04:42PM 43.1803 -84.0142 325° Northwest 421 484 27,300 1,800 Climbing Cleveland Center
04:43PM 43.2778 -84.1050 326° Northwest 421 484 29,300 1,680 Climbing Cleveland Center
04:45PM 43.4764 -84.2947 325° Northwest 444 511 32,500 1,800 Climbing Minneapolis Center
04:47PM 43.5956 -84.4097 325° Northwest 440 506 34,900 2,100 Climbing Minneapolis Center
04:48PM 43.6783 -84.5139 318° Northwest 418 481 36,900 1,560 Climbing Minneapolis Center
04:49PM 43.7414 -84.6375 305° West 399 459 38,200 960 Climbing Minneapolis Center
04:50PM 43.7819 -84.7747 292° West 390 449 39,000 540 Climbing Minneapolis Center
04:51PM 43.8156 -84.9172 288° West 390 449 39,400 480 Climbing Minneapolis Center
04:52PM 43.8517 -85.0644 289° West 400 460 40,000 240 Climbing Minneapolis Center
04:53PM 43.8942 -85.2417 288° West 406 467 40,000  Level Minneapolis Center
04:54PM 43.9289 -85.3881 288° West 404 465 40,000  Level Minneapolis Center
04:55PM 43.9639 -85.5364 288° West 405 466 40,000  Level Minneapolis Center
04:56PM 43.9997 -85.6856 289° West 408 470 40,000  Level Minneapolis Center
04:57PM 44.0339 -85.8358 288° West 410 472 40,000  Level Minneapolis Center
04:58PM 44.0767 -86.0169 288° West 412 474 40,000  Level Minneapolis Center
04:59PM 44.1092 -86.1589 288° West 409 471 40,000  Level Minneapolis Center
05:00PM 44.1431 -86.3086 288° West 406 467 40,000  Level Minneapolis Center
05:01PM 44.1789 -86.4619 288° West 412 474 40,000  Level Minneapolis Center
05:02PM 44.2194 -86.6442 287° West 410 472 40,000 60 Level Minneapolis Center
05:03PM 44.2542 -86.7975 288° West 412 474 40,200 360 Climbing Minneapolis Center
05:04PM 44.2869 -86.9489 287° West 408 470 40,800 540 Climbing Minneapolis Center
05:05PM 44.3206 -87.0981 288° West 403 464 41,400 540 Climbing Minneapolis Center
05:06PM 44.3558 -87.2542 288° West 390 449 42,000 360 Climbing Minneapolis Center
05:07PM 44.3869 -87.3986 287° West 389 448 42,200 120 Climbing Minneapolis Center
05:08PM 44.4181 -87.5453 287° West 391 450 42,300 60 Climbing Minneapolis Center
05:09PM 44.4500 -87.6942 287° West 398 458 42,400 120 Climbing Minneapolis Center
05:10PM 44.4847 -87.8583 287° West 397 457 42,600 240 Climbing Minneapolis Center
05:11PM 44.5169 -88.0153 286° West 398 458 42,900 180 Climbing Minneapolis Center
05:12PM 44.5489 -88.1664 287° West 404 465 43,000  Climbing Minneapolis Center
05:13PM 44.5897 -88.3128 291° West 405 466 43,000  Level Minneapolis Center
05:14PM 44.6353 -88.4597 294° West 410 472 43,000  Level Minneapolis Center
05:15PM 44.6861 -88.6342 292° West 414 476 43,000 -300 Level Minneapolis Center
05:17PM 44.7317 -88.7828 293° West 415 478 42,500 -540 Descending Minneapolis Center
05:18PM 44.7769 -88.9386 292° West 427 491 41,900 -540 Descending Minneapolis Center
05:19PM 44.8222 -89.0961 292° West 433 498 41,400 -480 Descending Minneapolis Center
05:20PM 44.8692 -89.2539 293° West 435 501 41,000 -240 Descending Minneapolis Center
05:21PM 44.9222 -89.4378 292° West 435 501 41,000  Level Minneapolis Center
05:22PM 44.9661 -89.5967 291° West 435 501 41,000  Level Minneapolis Center
05:23PM 45.0114 -89.7522 292° West 431 496 41,000  Level Minneapolis Center
05:24PM 45.0564 -89.9094 292° West 430 495 41,000  Level Minneapolis Center
05:25PM 45.1019 -90.0697 292° West 437 503 41,000  Level Minneapolis Center
05:26PM 45.1467 -90.2308 292° West 438 504 41,000  Level Minneapolis Center
05:27PM 45.1919 -90.3933 292° West 441 507 41,000  Level Minneapolis Center
05:28PM 45.2453 -90.5886 291° West 441 507 41,000  Level Minneapolis Center
05:29PM 45.2911 -90.7536 292° West 446 513 41,000  Level Minneapolis Center
05:30PM 45.3350 -90.9161 291° West 445 512 41,000  Level Minneapolis Center
05:31PM 45.3800 -91.0839 291° West 448 516 41,000  Level Minneapolis Center
05:32PM 45.4278 -91.2592 291° West 454 522 41,000  Level Minneapolis Center
05:33PM 45.4728 -91.4267 291° West 456 525 41,000  Level Minneapolis Center
05:34PM 45.5181 -91.5939 291° West 455 524 41,000  Level Minneapolis Center
05:35PM 45.5694 -91.7886 291° West 445 512 41,000  Level Minneapolis Center
05:36PM 45.6119 -91.9528 290° West 443 510 41,000  Level Minneapolis Center
05:37PM 45.6542 -92.1147 291° West 440 506 41,000  Level Minneapolis Center
05:38PM 45.6950 -92.2761 290° West 436 502 41,000  Level Minneapolis Center
05:39PM 45.7369 -92.4392 290° West 437 503 41,000  Level Minneapolis Center
05:40PM 45.7856 -92.6322 290° West 435 501 41,000  Level Minneapolis Center
05:41PM 45.8261 -92.7956 290° West 436 502 41,000  Level Minneapolis Center
05:42PM 45.8672 -92.9572 290° West 435 501 41,000  Level Minneapolis Center
05:43PM 45.9072 -93.1200 290° West 434 499 41,000  Level Minneapolis Center
05:44PM 45.9469 -93.2819 289° West 432 497 41,000  Level Minneapolis Center
05:45PM 45.9861 -93.4450 289° West 434 499 41,000  Level Minneapolis Center
05:47PM 46.0339 -93.6419 289° West 436 502 41,000  Level Minneapolis Center
05:48PM 46.0722 -93.8047 289° West 433 498 41,000 -240 Level Minneapolis Center
05:49PM 46.1111 -93.9653 289° West 430 495 40,600 -480 Descending Minneapolis Center
05:50PM 46.1508 -94.1306 289° West 436 502 40,100 -300 Descending Minneapolis Center
05:51PM 46.1883 -94.2942 288° West 435 501 40,000 -60 Descending Minneapolis Center
05:52PM 46.2331 -94.4850 289° West 426 490 40,000  Level Minneapolis Center
05:53PM 46.2708 -94.6475 289° West 428 493 40,000  Level Minneapolis Center
05:54PM 46.3075 -94.8086 288° West 425 489 40,000  Level Minneapolis Center
05:55PM 46.3450 -94.9722 288° West 425 489 40,000  Level Minneapolis Center
05:56PM 46.3811 -95.1342 288° West 426 490 40,000  Level Minneapolis Center
05:57PM 46.4178 -95.2978 288° West 426 490 40,000  Level Minneapolis Center
05:58PM 46.4681 -95.5269 288° West 424 488 40,000  Level Minneapolis Center
05:59PM 46.5044 -95.6931 288° West 430 495 40,000  Level Minneapolis Center
06:00PM 46.5406 -95.8581 288° West 431 496 40,000  Level Minneapolis Center
06:01PM 46.5764 -96.0211 288° West 428 493 40,000  Level Minneapolis Center
06:02PM 46.6119 -96.1847 288° West 426 490 40,000  Level Minneapolis Center
06:03PM 46.6469 -96.3492 287° West 426 490 40,000  Level Minneapolis Center
06:04PM 46.6894 -96.5464 288° West 427 491 40,000  Level Minneapolis Center
06:05PM 46.7225 -96.7108 286° West 425 489 40,000  Level Minneapolis Center
06:06PM 46.7594 -96.8739 288° West 425 489 40,000  Level Minneapolis Center
06:07PM 46.8125 -97.0231 298° West 421 484 40,000  Level Minneapolis Center
06:09PM 46.8700 -97.1700 300° West 418 481 40,000  Level Minneapolis Center
06:10PM 46.9347 -97.3486 298° West 416 479 40,000  Level Minneapolis Center
06:11PM 47.0000 -97.5278 298° West 416 479 40,000  Level Minneapolis Center
06:12PM 47.0547 -97.6786 298° West 417 480 40,000  Level Minneapolis Center
06:13PM 47.1078 -97.8306 297° West 417 480 40,000  Level Minneapolis Center
06:14PM 47.1619 -97.9817 298° West 416 479 40,000  Level Minneapolis Center
06:15PM 47.2169 -98.1350 298° West 420 483 40,000  Level Minneapolis Center
06:16PM 47.2694 -98.2872 297° West 417 480 40,000  Level Minneapolis Center
06:17PM 47.3222 -98.4378 297° West 412 474 40,000  Level Minneapolis Center
06:18PM 47.3853 -98.6200 297° West 414 476 40,000  Level Minneapolis Center
06:19PM 47.4381 -98.7711 297° West 414 476 40,000  Level Minneapolis Center
06:20PM 47.4897 -98.9239 297° West 414 476 40,000  Level Minneapolis Center
06:21PM 47.5408 -99.0742 297° West 412 474 40,000  Level Minneapolis Center
06:22PM 47.5925 -99.2267 297° West 413 475 40,000  Level Minneapolis Center
06:23PM 47.6433 -99.3756 297° West 409 471 40,000  Level Minneapolis Center
06:24PM 47.7039 -99.5597 296° West 412 474 40,000  Level Minneapolis Center
06:25PM 47.7550 -99.7119 297° West 413 475 40,000  Level Minneapolis Center
06:26PM 47.8047 -99.8642 296° West 411 473 40,000  Level Minneapolis Center
06:27PM 47.8542 -100.0200 295° West 415 478 40,000  Level Minneapolis Center
06:28PM 47.9061 -100.1728 297° West 413 475 40,000  Level Minneapolis Center
06:29PM 47.9544 -100.3256 295° West 411 473 40,000  Level Minneapolis Center
06:30PM 48.0114 -100.5108 295° West 410 472 40,000  Level Minneapolis Center
06:31PM 48.0636 -100.6633 297° West 411 473 40,000  Level Minneapolis Center
06:32PM 48.1111 -100.8181 295° West 411 473 40,000  Level Minneapolis Center
06:34PM 48.1594 -100.9731 295° West 412 474 40,000  Level Minneapolis Center
06:35PM 48.2114 -101.1389 295° West 414 476 40,000  Level Minneapolis Center
06:36PM 48.2586 -101.2967 294° West 417 480 40,000  Level Minneapolis Center
06:37PM 48.2867 -101.4669 284° West 421 484 40,000  Level Minneapolis Center
06:38PM 48.3183 -101.6756 283° West 427 491 40,000  Level Minneapolis Center
06:39PM 48.3433 -101.8478 282° West 425 489 40,000  Level Minneapolis Center
06:40PM 48.3686 -102.0200 283° West 424 488 40,000  Level Minneapolis Center
06:41PM 48.3956 -102.1917 283° West 424 488 40,000  Level Minneapolis Center
06:42PM 48.4203 -102.3650 282° West 425 489 40,000  Level Minneapolis Center
06:43PM 48.4444 -102.5369 282° West 423 487 40,000  Level Minneapolis Center
06:44PM 48.4739 -102.7444 282° West 424 488 40,000  Level Minneapolis Center
06:45PM 48.5000 -102.9203 283° West 428 493 40,000  Level Minneapolis Center
06:46PM 48.5250 -103.0989 282° West 433 498 40,000  Level Minneapolis Center
06:47PM 48.5494 -103.2733 282° West 432 497 40,000  Level Minneapolis Center
06:48PM 48.5719 -103.4481 281° West 431 496 40,000  Level Minneapolis Center
06:49PM 48.5994 -103.6572 281° West 428 493 40,000  Level Minneapolis Center
06:50PM 48.6228 -103.8325 281° West 428 493 40,000  Level Minneapolis Center
06:51PM 48.6453 -104.0094 281° West 429 494 40,000  Level Minneapolis Center
06:52PM 48.6678 -104.1844 281° West 429 494 40,000  Level Minneapolis Center
06:53PM 48.6897 -104.3625 281° West 429 494 40,000  Level Minneapolis Center
06:54PM 48.7158 -104.5733 281° West 429 494 40,000  Level Minneapolis Center
06:55PM 48.7167 -104.7333 271° West 420 483 40,000  Level Winnipeg Center
06:56PM 48.7436 -104.7842 309° West 429 494 40,000  Level Salt Lake Center
06:57PM 48.7700 -104.9939 281° West 427 491 40,000  Level Salt Lake Center
06:58PM 48.7914 -105.1725 280° West 428 493 40,000  Level Salt Lake Center
06:59PM 48.8111 -105.3506 280° West 429 494 40,000  Level Salt Lake Center
07:00PM 48.8325 -105.5275 280° West 430 495 40,000  Level Salt Lake Center
07:01PM 48.8533 -105.7031 280° West 427 491 40,000  Level Salt Lake Center
07:02PM 48.8725 -105.8792 279° West 425 489 40,000  Level Salt Lake Center
07:03PM 48.8500 -106.0667 260° West 410 472 40,000  Level Edmonton Center
07:04PM 48.8667 -106.2167 280° West 410 472 40,000  Level Edmonton Center
07:05PM 48.9333 -106.4297 296° West 415 478 40,000  Level Salt Lake Center
07:06PM 48.9167 -106.5500 258° West 420 483 40,000  Level Edmonton Center
07:07PM 48.9333 -106.7333 278° West 420 483 40,000  Level Edmonton Center
07:08PM 48.9500 -106.9167 278° West 410 472 40,000  Level Edmonton Center
07:09PM 48.9833 -107.1000 286° West 420 483 40,000  Level Edmonton Center
07:10PM 48.9833 -107.2667 270° West 410 472 40,000  Level Edmonton Center
07:11PM 49.0000 -107.4500 278° West 410 472 40,000  Level Edmonton Center
07:12PM 49.0333 -107.6000 289° West 410 472 40,000  Level Edmonton Center
07:13PM 49.0500 -107.7833 278° West 410 472 40,000  Level Edmonton Center
07:14PM 49.0500 -107.9667 270° West 420 483 40,000  Level Edmonton Center
07:15PM 49.0667 -108.1167 280° West 410 472 40,000  Level Edmonton Center
07:16PM 49.0833 -108.3000 278° West 420 483 40,000  Level Edmonton Center
07:17PM 49.1167 -108.4833 286° West 410 472 40,000  Level Edmonton Center
07:18PM 49.1167 -108.6667 270° West 420 483 40,000  Level Edmonton Center
07:19PM 49.1333 -108.8500 278° West 410 472 40,000  Level Edmonton Center
07:20PM 49.1500 -109.0333 278° West 410 472 40,000  Level Edmonton Center
07:21PM 49.1667 -109.1833 280° West 410 472 40,000  Level Edmonton Center
07:22PM 49.1833 -109.3667 278° West 410 472 40,000  Level Edmonton Center
07:23PM 49.1833 -109.5500 270° West 410 472 40,000  Level Edmonton Center
07:24PM 49.2167 -109.7000 289° West 410 472 40,000  Level Edmonton Center
07:25PM 49.2167 -109.8833 270° West 420 483 40,000  Level Edmonton Center
07:26PM 49.2333 -110.0667 278° West 410 472 40,000  Level Edmonton Center
07:27PM 49.2333 -110.2500 270° West 420 483 40,000  Level Edmonton Center
07:28PM 49.2667 -110.4333 286° West 420 483 40,000  Level Edmonton Center
07:29PM 49.2667 -110.6167 270° West 420 483 40,000  Level Edmonton Center
07:30PM 49.2833 -110.7667 280° West 420 483 40,000  Level Edmonton Center
07:31PM 49.3000 -110.9833 277° West 420 483 40,000  Level Edmonton Center
07:32PM 49.3167 -111.1333 280° West 420 483 40,000  Level Edmonton Center
07:33PM 49.3167 -111.3167 270° West 410 472 40,000  Level Edmonton Center
07:34PM 49.3167 -111.5000 270° West 410 472 40,000  Level Edmonton Center
07:35PM 49.3500 -111.6667 287° West 410 472 40,000  Level Edmonton Center
07:36PM 49.3500 -111.8500 270° West 410 472 40,000  Level Edmonton Center
07:37PM 49.3500 -112.0333 270° West 420 483 40,000  Level Edmonton Center
07:38PM 49.3667 -112.1833 280° West 420 483 40,000  Level Edmonton Center
07:39PM 49.3833 -112.4000 277° West 410 472 40,000  Level Edmonton Center
07:40PM 49.3833 -112.5500 270° West 420 483 40,000  Level Edmonton Center
07:41PM 49.3833 -112.7333 270° West 410 472 40,000  Level Edmonton Center
07:42PM 49.4167 -112.9167 286° West 410 472 40,000  Level Edmonton Center
07:43PM 49.4167 -113.1000 270° West 420 483 40,000  Level Edmonton Center
07:44PM 49.4167 -113.2500 270° West 420 483 40,000  Level Edmonton Center
07:45PM 49.4333 -113.4500 277° West 400 460 40,000  Level Edmonton Center
07:46PM 49.4333 -113.6333 270° West 410 472 40,000  Level Edmonton Center
07:47PM 49.4500 -113.8000 279° West 420 483 40,000  Level Edmonton Center
07:48PM 49.4667 -114.0000 277° West 420 483 40,000  Level Edmonton Center
07:49PM 49.4667 -114.1833 270° West 420 483 40,000  Level Edmonton Center
07:50PM 49.4667 -114.3333 270° West 420 483 40,000  Level Edmonton Center
07:51PM 49.4833 -114.5167 278° West 420 483 40,000  Level Edmonton Center
07:52PM 49.4833 -114.7000 270° West 420 483 40,000  Level Edmonton Center
07:53PM 49.4833 -114.8833 270° West 420 483 40,000  Level Edmonton Center
07:54PM 49.5000 -115.0667 278° West 420 483 40,000  Level Edmonton Center
07:55PM 49.5000 -115.2500 270° West 410 472 40,000  Level Edmonton Center
07:56PM 49.5000 -115.4333 270° West 410 472 40,000  Level Edmonton Center
07:57PM 49.5000 -115.6000 270° West 420 483 40,000  Level Edmonton Center
07:58PM 49.5167 -115.7833 278° West 410 472 40,000  Level Edmonton Center
07:59PM 49.5167 -115.9667 270° West 420 483 40,000  Level Edmonton Center
08:00PM 49.5333 -116.1500 278° West 410 472 40,000  Level Edmonton Center
08:01PM 49.5500 -116.3167 279° West 410 472 40,000  Level Edmonton Center
08:02PM 49.5833 -116.5000 286° West 430 495 40,000  Level Edmonton Center
08:03PM 49.6000 -116.6667 279° West 420 483 40,000  Level Edmonton Center
08:04PM 49.6167 -116.8500 278° West 420 483 40,000  Level Edmonton Center
08:05PM 49.6667 -117.0167 295° West 420 483 40,000 -60 Level Vancouver Center
08:06PM 49.6833 -117.2167 277° West 420 483 39,900 -900 Descending Vancouver Center
08:07PM 49.7167 -117.3833 287° West 430 495 38,300 -1,920 Descending Vancouver Center
08:08PM 49.7333 -117.5667 278° West 420 483 36,100 -2,340 Descending Vancouver Center
08:09PM 49.7667 -117.7167 289° West 410 472 33,700 -2,520 Descending Vancouver Center
08:10PM 49.7667 -117.9333 270° West 430 495 31,100 -2,340 Descending Vancouver Center
08:11PM 49.8000 -118.1000 287° West 440 506 29,100 -2,400 Descending Vancouver Center
08:12PM 49.8167 -118.2833 278° West 440 506 26,400 -3,000 Descending Vancouver Center
08:13PM 49.8500 -118.4667 286° West 420 483 23,200 -3,300 Descending Vancouver Center
08:14PM 49.8500 -118.6500 270° West 410 472 19,800 -3,540 Descending Vancouver Center
08:15PM 49.9000 -118.8000 297° West 400 460 16,200 -3,300 Descending Vancouver Center
08:16PM 49.9333 -118.9500 289° West 390 449 13,200 -2,520 Descending Vancouver Center
08:17PM 50.0000 -119.1000 305° West 360 414 11,200 -1,500 Descending Vancouver Center
08:18PM 50.0333 -119.2167 294° West 340 391 10,200 -960 Descending Vancouver Center
08:19PM 50.1000 -119.2667 334° Northwest 290 334 9,300 -1,200 Descending Vancouver Center
08:20PM 50.1667 -119.2333 18° North 290 334 7,800 -1,620 Descending Vancouver Center
08:21PM 50.2000 -119.3167 302° West 220 253 6,100 -1,020 Descending Vancouver Center
08:22PM 50.1500 -119.3333 192° South 180 207 5,800 -600 Descending Vancouver Center
08:23PM 50.1167 -119.3667 213° Southwest 160 184 5,000 -900 Descending Vancouver Center
08:24PM 50.0667 -119.3833 192° South 160 184 4,000 -960 Descending Vancouver Center
08:25PM 50.0333 -119.3833 180° South 150 173 3,100 -900 Descending Vancouver Center
08:26PM 49.9833 -119.3500 157° South 150 173 2,200 -900 Descending Vancouver Center
08:27PM 49.9500 -119.3667 198° South 140 161 1,400 -420 Descending Vancouver Center
08:28PM 49.9333 -119.3667 180° South 40 46 1,400  Level Vancouver Center
08:29PM 49.9333 -119.3667 180° South 10 12 1,400  Level Vancouver Center